sensor_id;sensor_type;location;lat;lon;timestamp;temperature;humidity
81366;DHT22;70822;51.990;22.766;2023-07-08T00:08:24;15.40;59.20
81366;DHT22;70822;51.990;22.766;2023-07-08T00:23:29;15.40;61.00
81366;DHT22;70822;51.990;22.766;2023-07-08T00:38:34;15.10;60.30
81366;DHT22;70822;51.990;22.766;2023-07-08T00:53:39;15.00;61.50
81366;DHT22;70822;51.990;22.766;2023-07-08T01:08:44;14.70;61.10
81366;DHT22;70822;51.990;22.766;2023-07-08T01:23:49;14.60;61.20
81366;DHT22;70822;51.990;22.766;2023-07-08T01:38:54;14.40;62.00
81366;DHT22;70822;51.990;22.766;2023-07-08T01:54:00;14.20;62.10
81366;DHT22;70822;51.990;22.766;2023-07-08T02:09:05;14.00;62.40
81366;DHT22;70822;51.990;22.766;2023-07-08T02:24:11;13.70;64.00
81366;DHT22;70822;51.990;22.766;2023-07-08T02:39:16;13.70;63.50
81366;DHT22;70822;51.990;22.766;2023-07-08T02:54:21;13.70;64.60
81366;DHT22;70822;51.990;22.766;2023-07-08T03:09:26;13.60;65.30
81366;DHT22;70822;51.990;22.766;2023-07-08T03:24:31;13.60;65.00
81366;DHT22;70822;51.990;22.766;2023-07-08T03:39:38;13.90;65.80
81366;DHT22;70822;51.990;22.766;2023-07-08T03:54:44;14.50;65.80
81366;DHT22;70822;51.990;22.766;2023-07-08T04:09:50;17.90;64.70
81366;DHT22;70822;51.990;22.766;2023-07-08T04:24:55;29.70;47.60
81366;DHT22;70822;51.990;22.766;2023-07-08T04:39:59;37.90;36.70
81366;DHT22;70822;51.990;22.766;2023-07-08T04:55:06;42.90;29.60
81366;DHT22;70822;51.990;22.766;2023-07-08T05:10:11;46.40;25.60
81366;DHT22;70822;51.990;22.766;2023-07-08T05:25:18;48.00;17.80
81366;DHT22;70822;51.990;22.766;2023-07-08T05:40:24;46.90;16.00
81366;DHT22;70822;51.990;22.766;2023-07-08T05:55:29;47.60;15.80
81366;DHT22;70822;51.990;22.766;2023-07-08T06:10:34;45.60;16.10
81366;DHT22;70822;51.990;22.766;2023-07-08T06:25:38;41.20;20.00
81366;DHT22;70822;51.990;22.766;2023-07-08T06:40:43;37.00;23.50
81366;DHT22;70822;51.990;22.766;2023-07-08T06:55:49;37.80;23.40
81366;DHT22;70822;51.990;22.766;2023-07-08T07:10:54;37.30;24.30
81366;DHT22;70822;51.990;22.766;2023-07-08T07:25:59;33.90;27.40
81366;DHT22;70822;51.990;22.766;2023-07-08T07:41:04;32.40;29.00
81366;DHT22;70822;51.990;22.766;2023-07-08T07:56:11;31.00;30.80
81366;DHT22;70822;51.990;22.766;2023-07-08T08:11:16;29.70;32.30
81366;DHT22;70822;51.990;22.766;2023-07-08T08:26:21;29.20;32.40
81366;DHT22;70822;51.990;22.766;2023-07-08T08:41:30;29.10;33.40
81366;DHT22;70822;51.990;22.766;2023-07-08T08:56:48;29.20;32.50
81366;DHT22;70822;51.990;22.766;2023-07-08T09:12:02;29.10;33.60
81366;DHT22;70822;51.990;22.766;2023-07-08T09:27:11;28.50;32.40
81366;DHT22;70822;51.990;22.766;2023-07-08T09:42:17;28.80;33.10
81366;DHT22;70822;51.990;22.766;2023-07-08T09:57:26;29.00;31.00
81366;DHT22;70822;51.990;22.766;2023-07-08T10:12:32;28.90;32.00
81366;DHT22;70822;51.990;22.766;2023-07-08T10:27:43;29.30;31.70
81366;DHT22;70822;51.990;22.766;2023-07-08T10:43:02;29.50;31.90
81366;DHT22;70822;51.990;22.766;2023-07-08T10:58:27;29.00;32.20
81366;DHT22;70822;51.990;22.766;2023-07-08T11:13:42;29.80;31.30
81366;DHT22;70822;51.990;22.766;2023-07-08T11:28:58;29.60;31.90
81366;DHT22;70822;51.990;22.766;2023-07-08T11:44:06;29.90;31.50
81366;DHT22;70822;51.990;22.766;2023-07-08T11:59:18;30.50;31.20
81366;DHT22;70822;51.990;22.766;2023-07-08T12:14:23;29.90;30.20
81366;DHT22;70822;51.990;22.766;2023-07-08T12:29:28;28.80;30.60
81366;DHT22;70822;51.990;22.766;2023-07-08T12:44:33;28.40;31.70
81366;DHT22;70822;51.990;22.766;2023-07-08T12:59:40;28.80;31.60
81366;DHT22;70822;51.990;22.766;2023-07-08T13:14:45;29.40;31.20
81366;DHT22;70822;51.990;22.766;2023-07-08T13:29:53;29.60;30.80
81366;DHT22;70822;51.990;22.766;2023-07-08T13:44:58;29.00;30.90
81366;DHT22;70822;51.990;22.766;2023-07-08T14:00:03;28.80;31.70
81366;DHT22;70822;51.990;22.766;2023-07-08T14:15:14;28.80;31.60
81366;DHT22;70822;51.990;22.766;2023-07-08T14:46:55;28.80;32.30
81366;DHT22;70822;51.990;22.766;2023-07-08T15:02:10;28.90;31.80
81366;DHT22;70822;51.990;22.766;2023-07-08T15:17:20;28.60;32.80
81366;DHT22;70822;51.990;22.766;2023-07-08T15:32:25;28.00;33.30
81366;DHT22;70822;51.990;22.766;2023-07-08T15:47:43;28.00;33.90
81366;DHT22;70822;51.990;22.766;2023-07-08T16:02:50;28.20;34.10
81366;DHT22;70822;51.990;22.766;2023-07-08T16:17:56;28.00;33.40
81366;DHT22;70822;51.990;22.766;2023-07-08T16:33:03;27.90;34.00
81366;DHT22;70822;51.990;22.766;2023-07-08T16:48:10;27.70;34.10
81366;DHT22;70822;51.990;22.766;2023-07-08T17:03:18;27.70;34.90
81366;DHT22;70822;51.990;22.766;2023-07-08T17:18:26;27.60;35.50
81366;DHT22;70822;51.990;22.766;2023-07-08T17:33:32;27.20;35.30
81366;DHT22;70822;51.990;22.766;2023-07-08T17:48:38;26.80;37.00
81366;DHT22;70822;51.990;22.766;2023-07-08T18:03:44;26.30;37.80
81366;DHT22;70822;51.990;22.766;2023-07-08T18:18:50;25.90;38.20
81366;DHT22;70822;51.990;22.766;2023-07-08T18:33:56;25.60;39.20
81366;DHT22;70822;51.990;22.766;2023-07-08T18:49:01;25.30;40.80
81366;DHT22;70822;51.990;22.766;2023-07-08T19:04:10;24.60;41.80
81366;DHT22;70822;51.990;22.766;2023-07-08T19:19:15;23.60;43.20
81366;DHT22;70822;51.990;22.766;2023-07-08T19:34:21;22.80;45.30
81366;DHT22;70822;51.990;22.766;2023-07-08T19:49:26;22.00;46.40
81366;DHT22;70822;51.990;22.766;2023-07-08T20:04:32;21.40;46.60
81366;DHT22;70822;51.990;22.766;2023-07-08T20:19:41;20.90;48.10
81366;DHT22;70822;51.990;22.766;2023-07-08T20:34:48;20.30;48.70
81366;DHT22;70822;51.990;22.766;2023-07-08T20:49:55;19.90;49.60
81366;DHT22;70822;51.990;22.766;2023-07-08T21:05:02;19.50;51.50
81366;DHT22;70822;51.990;22.766;2023-07-08T21:20:17;19.00;51.90
81366;DHT22;70822;51.990;22.766;2023-07-08T21:35:24;18.70;53.30
81366;DHT22;70822;51.990;22.766;2023-07-08T21:50:34;18.40;53.70
81366;DHT22;70822;51.990;22.766;2023-07-08T22:05:41;18.20;54.70
81366;DHT22;70822;51.990;22.766;2023-07-08T22:20:47;18.00;55.70
81366;DHT22;70822;51.990;22.766;2023-07-08T22:35:53;17.70;56.80
81366;DHT22;70822;51.990;22.766;2023-07-08T22:50:58;17.50;56.80
81366;DHT22;70822;51.990;22.766;2023-07-08T23:06:10;17.30;57.60
81366;DHT22;70822;51.990;22.766;2023-07-08T23:21:18;16.90;60.10
81366;DHT22;70822;51.990;22.766;2023-07-08T23:36:29;16.70;60.30
81366;DHT22;70822;51.990;22.766;2023-07-08T23:51:34;16.60;60.30
